SCBA/BBA METAR and TAF weather

Enter ICAO airport designator
Station Type Date Time Source
SCBA METAR 2021/09/16 11:00 UTC NOAA

SCBA 161100Z 30014KT 9999 BKN040 BKN070 07/04 Q1010


Station Type Date Time Source
SCBA Decoded METAR 2021/09/16 11:00 UTC NOAA

Balmaceda, Chile (SCBA) 45-55S 071-41W 520M
Sep 16, 2021 - 07:00 AM EDT / 2021.09.16 1100 UTC
Wind: from the WNW (300 degrees) at 16 MPH (14 KT):0
Visibility: greater than 7 mile(s):0
Sky conditions: mostly cloudy
Temperature: 44 F (7 C)
Dew Point: 39 F (4 C)
Relative Humidity: 81%
Pressure (altimeter): 29.83 in. Hg (1010 hPa)
ob: SCBA 161100Z 30014KT 9999 BKN040 BKN070 07/04 Q1010
cycle: 11

Station Type Date Time Source
SCBA TAF 2021/09/16 12:05 UTC NOAA

TAF SCBA 161025Z 1612/1712 31010KT 9999 -SHRA BKN025 BKN040 TX11/1618Z TN02/1710Z
BECMG 1615/1617 31026KT BKN040
BECMG 1622/1700 30015KT NSW SCT030
TEMPO 1708/1712 9000 -SHRA BKN030

Example: see airport list